createdAt,value
2022-10-28T00:00:29.048Z,312.41
2022-10-28T00:01:29.100Z,312.01
2022-10-28T00:02:29.091Z,312.17
2022-10-28T00:03:29.023Z,312.32
2022-10-28T00:05:29.008Z,311.53
2022-10-28T00:06:29.026Z,312.07
2022-10-28T00:07:28.958Z,311.75
2022-10-28T00:08:28.952Z,312.22
2022-10-28T00:09:28.993Z,311.27
2022-10-28T00:10:28.952Z,311.04
2022-10-28T00:11:28.917Z,312.05
2022-10-28T00:12:28.900Z,311.34
2022-10-28T00:13:28.889Z,311.88
2022-10-28T00:14:28.894Z,311.44
2022-10-28T00:15:28.880Z,311.66
2022-10-28T00:16:28.863Z,310.86
2022-10-28T00:17:28.885Z,312.08
2022-10-28T00:18:28.830Z,312.83
2022-10-28T00:19:28.825Z,311.56
2022-10-28T00:20:28.830Z,311.45
2022-10-28T00:21:28.805Z,311.75
2022-10-28T00:22:28.793Z,311.44
2022-10-28T00:23:28.772Z,311.76
2022-10-28T00:24:28.757Z,311.38
2022-10-28T00:25:28.748Z,311.44
2022-10-28T00:26:28.752Z,312.38
2022-10-28T00:27:28.741Z,311.59
2022-10-28T00:28:28.735Z,312.00
2022-10-28T00:29:28.726Z,311.36
2022-10-28T00:30:28.748Z,311.03
2022-10-28T00:31:28.690Z,312.54
2022-10-28T00:32:28.680Z,313.42
2022-10-28T00:33:28.670Z,311.43
2022-10-28T00:34:28.645Z,311.94
2022-10-28T00:35:28.640Z,311.78
2022-10-28T00:36:28.632Z,311.88
2022-10-28T00:37:28.631Z,311.80
2022-10-28T00:38:28.609Z,312.05
2022-10-28T00:39:28.594Z,311.43
2022-10-28T00:40:28.582Z,312.01
2022-10-28T00:41:28.573Z,312.09
2022-10-28T00:42:28.575Z,312.40
2022-10-28T00:43:28.563Z,312.80
2022-10-28T00:44:28.544Z,312.54
2022-10-28T00:45:28.532Z,312.33
2022-10-28T00:46:28.512Z,313.77
2022-10-28T00:47:28.522Z,313.08
2022-10-28T00:48:28.494Z,312.45
2022-10-28T00:49:28.485Z,312.10
2022-10-28T00:50:28.473Z,313.07
2022-10-28T00:51:28.461Z,312.75
2022-10-28T00:52:28.452Z,312.00
2022-10-28T00:53:28.471Z,312.18
2022-10-28T00:54:28.423Z,311.75
2022-10-28T00:55:28.433Z,312.08
2022-10-28T00:56:28.430Z,312.13
2022-10-28T00:57:28.398Z,312.18
2022-10-28T00:58:28.427Z,311.75
2022-10-28T00:59:28.375Z,312.05
2022-10-28T01:00:28.366Z,311.38
2022-10-28T01:01:28.404Z,312.05
2022-10-28T01:02:28.376Z,312.97
2022-10-28T01:03:28.343Z,313.02
2022-10-28T01:04:28.333Z,312.19
2022-10-28T01:05:28.305Z,312.16
2022-10-28T01:06:28.296Z,312.65
2022-10-28T01:07:28.289Z,312.32
2022-10-28T01:08:28.300Z,312.53
2022-10-28T01:09:28.272Z,312.34
2022-10-28T01:10:28.250Z,312.75
2022-10-28T01:11:28.266Z,312.32
2022-10-28T01:12:28.245Z,312.28
2022-10-28T01:13:28.215Z,311.85
2022-10-28T01:14:28.253Z,311.41
2022-10-28T01:15:28.185Z,311.88
2022-10-28T01:16:28.191Z,312.43
2022-10-28T01:17:28.165Z,312.54
2022-10-28T01:18:28.158Z,313.02
2022-10-28T01:19:28.167Z,311.67
2022-10-28T01:20:28.135Z,312.30
2022-10-28T01:21:28.127Z,313.00
2022-10-28T01:22:28.251Z,312.63
2022-10-28T01:23:28.104Z,313.20
2022-10-28T01:24:28.105Z,312.59
2022-10-28T01:25:28.087Z,312.51
2022-10-28T01:26:28.109Z,312.32
2022-10-28T01:27:28.062Z,312.75
2022-10-28T01:28:28.054Z,312.97
2022-10-28T01:29:28.056Z,313.16
2022-10-28T01:30:28.027Z,312.03
2022-10-28T01:31:28.026Z,312.20
2022-10-28T01:32:28.035Z,312.88
2022-10-28T01:33:28.051Z,312.25
2022-10-28T01:34:27.982Z,312.88
2022-10-28T01:35:28.101Z,312.46
2022-10-28T01:36:27.955Z,312.61
2022-10-28T01:37:27.945Z,312.67
2022-10-28T01:38:27.964Z,311.78
2022-10-28T01:39:27.924Z,312.43
2022-10-28T01:40:27.908Z,312.27
2022-10-28T01:41:27.909Z,312.65
2022-10-28T01:42:27.894Z,311.16
2022-10-28T01:43:27.890Z,312.68
2022-10-28T01:44:27.895Z,313.36
2022-10-28T01:45:27.866Z,312.50
2022-10-28T01:46:27.852Z,312.02
2022-10-28T01:47:27.857Z,312.44
2022-10-28T01:48:27.867Z,313.01
2022-10-28T01:49:27.818Z,312.48
2022-10-28T01:50:27.814Z,311.90
2022-10-28T01:51:27.794Z,312.76
2022-10-28T01:52:27.782Z,312.18
2022-10-28T01:53:27.768Z,313.16
2022-10-28T01:54:27.754Z,312.13
2022-10-28T01:55:27.744Z,312.06
2022-10-28T01:56:27.743Z,312.90
2022-10-28T01:57:27.721Z,312.76
2022-10-28T01:58:27.706Z,312.63
2022-10-28T01:59:27.706Z,313.36
2022-10-28T02:00:27.758Z,312.74
2022-10-28T02:01:27.860Z,312.34
2022-10-28T02:02:27.668Z,312.22
2022-10-28T02:03:27.661Z,312.18
2022-10-28T02:04:27.645Z,311.95
2022-10-28T02:05:27.629Z,312.32
2022-10-28T02:06:27.639Z,312.32
2022-10-28T02:07:27.630Z,313.17
2022-10-28T02:08:27.594Z,312.79
2022-10-28T02:09:27.594Z,311.77
2022-10-28T02:10:27.584Z,312.13
2022-10-28T02:11:27.573Z,312.26
2022-10-28T02:12:27.556Z,312.55
2022-10-28T02:13:27.565Z,313.17
2022-10-28T02:14:27.556Z,312.41
2022-10-28T02:15:27.526Z,312.83
2022-10-28T02:16:27.505Z,312.14
2022-10-28T02:17:27.523Z,311.94
2022-10-28T02:18:27.505Z,312.03
2022-10-28T02:19:27.492Z,311.88
2022-10-28T02:20:27.496Z,312.53
2022-10-28T02:21:27.466Z,312.42
2022-10-28T02:22:27.445Z,312.24
2022-10-28T02:23:27.457Z,311.61
2022-10-28T02:24:27.426Z,311.77
2022-10-28T02:25:27.403Z,312.24
2022-10-28T02:26:27.390Z,311.72
2022-10-28T02:27:27.388Z,311.68
2022-10-28T02:28:27.377Z,312.78
2022-10-28T02:29:27.365Z,312.82
2022-10-28T02:30:27.395Z,312.38
2022-10-28T02:31:27.343Z,312.20
2022-10-28T02:32:27.328Z,312.31
2022-10-28T02:33:27.319Z,312.18
2022-10-28T02:34:27.309Z,312.14
2022-10-28T02:35:27.302Z,312.67
2022-10-28T02:36:27.312Z,312.34
2022-10-28T02:37:27.277Z,312.21
2022-10-28T02:38:27.259Z,312.46
2022-10-28T02:39:27.260Z,312.89
2022-10-28T02:40:27.240Z,312.82
2022-10-28T02:41:27.232Z,312.26
2022-10-28T02:42:27.245Z,312.92
2022-10-28T02:43:27.216Z,313.12
2022-10-28T02:44:27.197Z,312.99
2022-10-28T02:45:27.200Z,312.47
2022-10-28T02:46:27.180Z,312.34
2022-10-28T02:47:27.178Z,313.10
2022-10-28T02:48:27.155Z,313.00
2022-10-28T02:49:27.154Z,312.47
2022-10-28T02:50:27.123Z,312.80
2022-10-28T02:51:27.117Z,312.60
2022-10-28T02:52:27.100Z,312.35
2022-10-28T02:54:27.079Z,312.20
2022-10-28T02:55:27.071Z,312.49
2022-10-28T02:56:27.064Z,312.01
2022-10-28T02:57:27.065Z,312.87
2022-10-28T02:58:27.045Z,313.07
2022-10-28T02:59:27.055Z,312.79
2022-10-28T03:00:27.025Z,311.90
2022-10-28T03:01:27.147Z,311.97
2022-10-28T03:02:27.002Z,312.60
2022-10-28T03:03:26.979Z,312.21
2022-10-28T03:04:26.976Z,312.82
2022-10-28T03:05:26.992Z,312.66
2022-10-28T03:06:27.013Z,312.96
2022-10-28T03:07:26.945Z,312.22
2022-10-28T03:08:26.961Z,312.52
2022-10-28T03:09:26.921Z,312.73
2022-10-28T03:10:26.904Z,312.36
2022-10-28T03:11:26.893Z,312.41
2022-10-28T03:12:26.876Z,311.99
2022-10-28T03:13:26.875Z,312.80
2022-10-28T03:14:26.872Z,312.95
2022-10-28T03:15:26.842Z,313.37
2022-10-28T03:16:26.837Z,312.88
2022-10-28T03:17:26.826Z,312.95
2022-10-28T03:18:26.858Z,312.67
2022-10-28T03:19:26.802Z,312.67
2022-10-28T03:20:26.809Z,312.48
2022-10-28T03:21:26.779Z,312.59
2022-10-28T03:22:27.243Z,313.03
2022-10-28T03:23:26.750Z,312.51
2022-10-28T03:24:26.747Z,313.45
2022-10-28T03:25:26.740Z,312.84
2022-10-28T03:26:26.728Z,313.21
2022-10-28T03:27:26.752Z,313.06
2022-10-28T03:28:26.707Z,313.81
2022-10-28T03:29:26.695Z,313.23
2022-10-28T03:30:26.676Z,313.00
2022-10-28T03:31:26.674Z,312.62
2022-10-28T03:32:26.661Z,312.89
2022-10-28T03:33:26.644Z,313.10
2022-10-28T03:34:26.630Z,313.66
2022-10-28T03:35:26.617Z,312.99
2022-10-28T03:36:26.626Z,313.11
2022-10-28T03:37:26.606Z,313.01
2022-10-28T03:38:26.595Z,313.22
2022-10-28T03:39:26.582Z,312.78
2022-10-28T03:40:26.567Z,312.70
2022-10-28T03:41:26.568Z,312.79
2022-10-28T03:42:26.554Z,312.81
2022-10-28T03:43:26.546Z,313.03
2022-10-28T03:44:26.523Z,312.93
2022-10-28T03:45:26.533Z,312.49
2022-10-28T03:46:26.496Z,312.58
2022-10-28T03:47:26.496Z,312.17
2022-10-28T03:48:26.483Z,313.12
2022-10-28T03:49:26.468Z,312.50
2022-10-28T03:50:26.458Z,313.10
2022-10-28T03:51:26.439Z,312.92
2022-10-28T03:52:26.453Z,312.65
2022-10-28T03:53:27.766Z,312.98
2022-10-28T03:54:26.416Z,312.71
2022-10-28T03:55:26.408Z,312.80
2022-10-28T03:56:26.386Z,312.08
2022-10-28T03:57:26.369Z,312.95
2022-10-28T03:58:26.374Z,313.87
2022-10-28T03:59:26.351Z,312.97
2022-10-28T04:00:26.354Z,312.27
2022-10-28T04:01:26.541Z,313.13
2022-10-28T04:02:26.359Z,313.06
2022-10-28T04:03:26.327Z,312.98
2022-10-28T04:04:29.855Z,313.48
2022-10-28T04:05:26.297Z,313.37
2022-10-28T04:06:26.295Z,313.19
2022-10-28T04:07:26.269Z,313.50
2022-10-28T04:08:26.244Z,313.27
2022-10-28T04:09:26.247Z,312.92
2022-10-28T04:10:26.232Z,313.46
2022-10-28T04:11:26.227Z,313.35
2022-10-28T04:12:26.228Z,313.35
2022-10-28T04:13:26.210Z,314.25
2022-10-28T04:14:26.218Z,312.70
2022-10-28T04:15:26.174Z,313.27
2022-10-28T04:16:26.174Z,313.36
2022-10-28T04:17:26.166Z,313.40
2022-10-28T04:18:26.143Z,313.36
2022-10-28T04:19:26.149Z,313.11
2022-10-28T04:20:26.164Z,312.95
2022-10-28T04:21:26.109Z,313.22
2022-10-28T04:22:26.095Z,313.15
2022-10-28T04:23:26.182Z,313.09
2022-10-28T04:24:26.095Z,313.00
2022-10-28T04:25:26.086Z,312.87
2022-10-28T04:26:26.050Z,314.43
2022-10-28T04:27:26.039Z,314.18
2022-10-28T04:28:26.041Z,313.31
2022-10-28T04:29:26.012Z,313.53
2022-10-28T04:30:26.044Z,313.48
2022-10-28T04:31:26.038Z,313.75
2022-10-28T04:32:25.981Z,313.73
2022-10-28T04:33:25.981Z,313.88
2022-10-28T04:34:25.966Z,313.73
2022-10-28T04:35:25.950Z,313.27
2022-10-28T04:36:25.940Z,313.43
2022-10-28T04:37:25.967Z,313.10
2022-10-28T04:38:25.924Z,313.70
2022-10-28T04:39:25.904Z,313.43
2022-10-28T04:40:25.906Z,313.22
2022-10-28T04:41:25.885Z,313.79
2022-10-28T04:42:25.905Z,314.11
2022-10-28T04:43:25.869Z,312.78
2022-10-28T04:44:25.855Z,313.44
2022-10-28T04:45:25.842Z,312.92
2022-10-28T04:46:25.833Z,313.05
2022-10-28T04:47:25.830Z,312.71
2022-10-28T04:48:25.827Z,312.62
2022-10-28T04:49:25.790Z,312.35
2022-10-28T04:50:25.774Z,312.80
2022-10-28T04:51:25.762Z,313.15
2022-10-28T04:52:25.752Z,313.11
2022-10-28T04:53:25.764Z,313.09
2022-10-28T04:54:25.748Z,313.11
2022-10-28T04:55:25.728Z,314.02
2022-10-28T04:56:25.712Z,311.93
2022-10-28T04:57:25.700Z,324.98
2022-10-28T04:58:25.716Z,312.62
2022-10-28T04:59:25.677Z,312.96
2022-10-28T05:00:25.669Z,313.47
2022-10-28T05:01:25.781Z,312.92
2022-10-28T05:02:25.779Z,313.46
2022-10-28T05:03:25.631Z,313.20
2022-10-28T05:04:25.640Z,328.20
2022-10-28T05:05:25.609Z,320.73
2022-10-28T05:06:25.662Z,313.84
2022-10-28T05:07:25.586Z,313.20
2022-10-28T05:08:25.584Z,312.97
2022-10-28T05:09:25.594Z,313.03
2022-10-28T05:10:25.653Z,313.63
2022-10-28T05:11:25.545Z,314.72
2022-10-28T05:12:25.548Z,313.42
2022-10-28T05:13:25.897Z,313.34
2022-10-28T05:14:25.525Z,312.85
2022-10-28T05:15:25.544Z,313.67
2022-10-28T05:16:25.507Z,313.60
2022-10-28T05:17:25.475Z,313.06
2022-10-28T05:18:25.477Z,313.71
2022-10-28T05:19:25.461Z,313.99
2022-10-28T05:20:25.507Z,311.87
2022-10-28T05:21:25.441Z,311.90
2022-10-28T05:22:25.437Z,313.10
2022-10-28T05:23:28.594Z,312.13
2022-10-28T05:24:26.408Z,313.90
2022-10-28T05:25:25.408Z,314.02
2022-10-28T05:26:25.406Z,313.38
2022-10-28T05:27:25.378Z,313.46
2022-10-28T05:28:25.355Z,313.56
2022-10-28T05:29:27.727Z,313.87
2022-10-28T05:30:26.418Z,313.31
2022-10-28T05:31:25.324Z,313.77
2022-10-28T05:32:25.315Z,314.06
2022-10-28T05:33:25.313Z,313.19
2022-10-28T05:34:25.281Z,313.50
2022-10-28T05:35:25.282Z,313.83
2022-10-28T05:36:25.298Z,314.22
2022-10-28T05:37:25.258Z,313.98
2022-10-28T05:38:25.248Z,315.49
2022-10-28T05:39:25.230Z,314.16
2022-10-28T05:40:25.221Z,314.61
2022-10-28T05:41:25.206Z,313.84
2022-10-28T05:42:25.221Z,313.99
2022-10-28T05:43:25.178Z,312.98
2022-10-28T05:44:25.181Z,313.93
2022-10-28T05:45:25.196Z,314.14
2022-10-28T05:46:25.151Z,313.94
2022-10-28T05:47:25.146Z,313.27
2022-10-28T05:48:25.149Z,314.39
2022-10-28T05:49:25.115Z,314.95
2022-10-28T05:50:25.126Z,314.79
2022-10-28T05:51:25.095Z,314.38
2022-10-28T05:52:25.098Z,315.29
2022-10-28T05:53:25.070Z,315.83
2022-10-28T05:54:25.059Z,314.80
2022-10-28T05:55:25.059Z,314.77
2022-10-28T05:56:25.035Z,315.04
2022-10-28T05:57:25.025Z,314.28
2022-10-28T05:58:25.038Z,314.64
2022-10-28T05:59:25.041Z,314.02
2022-10-28T06:00:24.995Z,314.38
2022-10-28T06:01:25.053Z,314.55
2022-10-28T06:02:24.975Z,314.69
2022-10-28T06:03:30.038Z,314.21
2022-10-28T06:04:25.961Z,314.55
2022-10-28T06:05:24.946Z,314.58
2022-10-28T06:06:24.975Z,313.77
2022-10-28T06:07:24.923Z,315.30
2022-10-28T06:08:24.918Z,315.26
2022-10-28T06:09:24.893Z,314.72
2022-10-28T06:10:24.889Z,313.44
2022-10-28T06:11:23.356Z,313.74
2022-10-28T06:12:23.397Z,313.89
2022-10-28T06:13:23.329Z,314.16
2022-10-28T06:14:23.327Z,322.62
2022-10-28T06:15:23.349Z,313.93
2022-10-28T06:16:23.302Z,313.84
2022-10-28T06:17:23.279Z,313.84
2022-10-28T06:18:23.264Z,314.47
2022-10-28T06:19:23.248Z,314.51
2022-10-28T06:20:23.246Z,313.23
2022-10-28T06:21:23.249Z,314.22
2022-10-28T06:22:23.231Z,315.68
2022-10-28T06:23:23.237Z,314.67
2022-10-28T06:24:23.203Z,314.15
2022-10-28T06:25:23.187Z,313.99
2022-10-28T06:26:23.197Z,315.27
2022-10-28T06:27:23.166Z,313.99
2022-10-28T06:28:23.159Z,314.67
2022-10-28T06:29:23.149Z,314.45
2022-10-28T06:30:23.145Z,314.11
2022-10-28T06:31:23.155Z,314.18
2022-10-28T06:32:23.127Z,313.76
2022-10-28T06:33:23.120Z,314.12
2022-10-28T06:34:23.103Z,313.86
2022-10-28T06:35:23.085Z,314.60
2022-10-28T06:36:23.106Z,314.02
2022-10-28T06:37:23.071Z,313.91
2022-10-28T06:38:23.078Z,314.15
2022-10-28T06:39:23.089Z,314.24
2022-10-28T06:40:23.057Z,313.66
2022-10-28T06:41:23.059Z,314.15
2022-10-28T06:42:23.717Z,313.58
2022-10-28T06:43:23.006Z,313.77
2022-10-28T06:44:23.000Z,313.64
2022-10-28T06:45:22.979Z,313.65
2022-10-28T06:46:22.972Z,313.83
2022-10-28T06:47:24.606Z,313.25
2022-10-28T06:48:24.475Z,313.44
2022-10-28T06:49:24.457Z,313.52
2022-10-28T06:50:24.456Z,313.95
2022-10-28T06:51:24.445Z,314.39
2022-10-28T06:52:24.451Z,313.81
2022-10-28T06:53:24.427Z,313.57
2022-10-28T06:54:24.404Z,313.62
2022-10-28T06:55:24.402Z,313.67
2022-10-28T06:56:24.382Z,313.67
2022-10-28T06:57:26.909Z,313.06
2022-10-28T06:58:24.392Z,313.59
2022-10-28T06:59:24.365Z,313.34
2022-10-28T07:00:24.374Z,313.56
2022-10-28T07:01:24.461Z,313.12
2022-10-28T07:02:24.488Z,312.95
2022-10-28T07:03:24.325Z,312.68
2022-10-28T07:04:24.334Z,313.11
2022-10-28T07:05:24.312Z,313.95
2022-10-28T07:06:24.283Z,313.18
2022-10-28T07:07:24.274Z,313.38
2022-10-28T07:08:24.271Z,313.17
2022-10-28T07:09:24.259Z,313.16
2022-10-28T07:10:24.352Z,313.29
2022-10-28T07:11:24.231Z,313.27
2022-10-28T07:12:24.222Z,313.55
2022-10-28T07:13:24.873Z,313.36
2022-10-28T07:14:24.208Z,312.94
2022-10-28T07:15:24.190Z,313.16
2022-10-28T07:16:24.208Z,313.05
2022-10-28T07:17:24.167Z,312.78
2022-10-28T07:18:24.162Z,312.70
2022-10-28T07:19:24.209Z,313.69
2022-10-28T07:20:24.230Z,313.89
2022-10-28T07:21:24.142Z,313.77
2022-10-28T07:22:25.802Z,313.29
2022-10-28T07:23:24.109Z,313.21
2022-10-28T07:24:24.177Z,313.15
2022-10-28T07:25:24.086Z,313.46
2022-10-28T07:26:24.085Z,312.94
2022-10-28T07:27:24.071Z,313.81
2022-10-28T07:28:24.049Z,313.21
2022-10-28T07:29:24.036Z,313.34
2022-10-28T07:30:24.094Z,312.77
2022-10-28T07:31:24.029Z,313.23
2022-10-28T07:32:24.006Z,312.03
2022-10-28T07:33:23.997Z,312.75
2022-10-28T07:34:27.026Z,312.09
2022-10-28T07:35:23.983Z,313.49
2022-10-28T07:36:23.961Z,312.09
2022-10-28T07:37:23.966Z,312.33
2022-10-28T07:38:23.942Z,312.22
2022-10-28T07:39:23.985Z,312.04
2022-10-28T07:40:24.092Z,311.96
2022-10-28T07:41:23.908Z,311.98
2022-10-28T07:42:23.924Z,312.16
2022-10-28T07:43:23.893Z,312.23
2022-10-28T07:44:23.879Z,312.08
2022-10-28T07:45:23.874Z,312.04
2022-10-28T07:46:23.861Z,311.82
2022-10-28T07:47:23.844Z,311.58
2022-10-28T07:48:23.843Z,312.05
2022-10-28T07:49:23.836Z,312.08
2022-10-28T07:50:23.820Z,310.73
2022-10-28T07:51:23.811Z,311.37
2022-10-28T07:52:23.784Z,312.43
2022-10-28T07:53:26.358Z,311.47
2022-10-28T07:54:23.795Z,310.46
2022-10-28T07:55:23.773Z,312.40
2022-10-28T07:56:23.798Z,312.56
2022-10-28T07:57:23.740Z,311.51
2022-10-28T07:58:23.760Z,310.33
2022-10-28T07:59:26.650Z,310.85
2022-10-28T08:00:23.691Z,311.28
2022-10-28T08:01:23.774Z,311.42
2022-10-28T08:02:23.670Z,308.70
2022-10-28T08:03:25.468Z,310.23
2022-10-28T08:04:24.650Z,310.07
2022-10-28T08:05:23.646Z,309.42
2022-10-28T08:06:23.624Z,309.74
2022-10-28T08:07:23.609Z,311.22
2022-10-28T08:08:23.586Z,309.75
2022-10-28T08:09:23.602Z,310.46
2022-10-28T08:10:23.562Z,310.88
2022-10-28T08:11:23.569Z,310.44
2022-10-28T08:12:23.545Z,308.71
2022-10-28T08:13:23.546Z,310.26
2022-10-28T08:14:23.554Z,310.12
2022-10-28T08:15:23.525Z,308.50
2022-10-28T08:16:23.484Z,309.55
2022-10-28T08:17:23.469Z,310.02
2022-10-28T08:18:23.462Z,309.58
2022-10-28T08:19:23.463Z,309.87
2022-10-28T08:20:23.454Z,309.78
2022-10-28T08:21:23.425Z,310.20
2022-10-28T08:22:23.406Z,309.02
2022-10-28T08:23:23.401Z,309.29
2022-10-28T08:24:23.388Z,308.54
2022-10-28T08:25:23.398Z,309.09
2022-10-28T08:26:23.387Z,309.23
2022-10-28T08:27:23.499Z,308.95
2022-10-28T08:28:23.374Z,309.17
2022-10-28T08:29:27.680Z,308.74
2022-10-28T08:30:24.326Z,309.49
2022-10-28T08:31:23.306Z,308.82
2022-10-28T08:32:23.384Z,308.86
2022-10-28T08:33:23.308Z,309.43
2022-10-28T08:34:23.280Z,310.65
2022-10-28T08:35:23.278Z,310.35
2022-10-28T08:36:23.255Z,310.60
2022-10-28T08:37:23.280Z,310.38
2022-10-28T08:38:23.251Z,310.38
2022-10-28T08:39:23.245Z,310.15
2022-10-28T08:40:23.210Z,310.66
2022-10-28T08:41:23.218Z,308.73
2022-10-28T08:42:23.190Z,310.72
2022-10-28T08:43:35.009Z,309.26
2022-10-28T08:44:24.183Z,309.03
2022-10-28T08:45:23.150Z,309.45
2022-10-28T08:46:23.157Z,310.55
2022-10-28T08:47:23.155Z,308.77
2022-10-28T08:48:23.157Z,310.30
2022-10-28T08:49:23.124Z,310.13
2022-10-28T08:50:23.102Z,310.21
2022-10-28T08:51:23.098Z,309.74
2022-10-28T08:52:23.082Z,310.56
2022-10-28T08:53:23.069Z,309.61
2022-10-28T08:54:23.074Z,309.82
2022-10-28T08:55:23.060Z,309.64
2022-10-28T08:56:23.034Z,309.86
2022-10-28T08:57:23.025Z,310.29
2022-10-28T08:58:23.020Z,310.32
2022-10-28T08:59:23.005Z,310.85
2022-10-28T09:00:23.007Z,310.79
2022-10-28T09:01:23.158Z,311.94
2022-10-28T09:02:22.970Z,311.59
2022-10-28T09:03:22.951Z,311.42
2022-10-28T09:04:22.940Z,312.55
2022-10-28T09:05:22.937Z,312.83
2022-10-28T09:06:22.923Z,310.85
2022-10-28T09:07:22.922Z,310.72
2022-10-28T09:08:22.895Z,311.62
2022-10-28T09:09:22.897Z,311.37
2022-10-28T09:10:22.874Z,309.92
2022-10-28T09:11:26.400Z,311.08
2022-10-28T09:12:22.859Z,310.23
2022-10-28T09:13:22.847Z,310.23
2022-10-28T09:14:22.851Z,310.23
2022-10-28T09:15:22.825Z,310.87
2022-10-28T09:16:22.834Z,310.35
2022-10-28T09:17:22.802Z,311.17
2022-10-28T09:18:22.803Z,309.47
2022-10-28T09:19:22.782Z,310.79
2022-10-28T09:20:22.771Z,310.74
2022-10-28T09:21:22.761Z,310.48
2022-10-28T09:22:22.766Z,309.76
2022-10-28T09:23:22.756Z,309.40
2022-10-28T09:24:22.733Z,310.06
2022-10-28T09:25:22.715Z,309.04
2022-10-28T09:26:22.704Z,308.99
2022-10-28T09:27:22.708Z,308.81
2022-10-28T09:28:22.677Z,310.60
2022-10-28T09:29:22.680Z,308.67
2022-10-28T09:30:22.667Z,308.45
2022-10-28T09:31:22.645Z,309.29
2022-10-28T09:32:22.647Z,309.67
2022-10-28T09:33:22.633Z,308.23
2022-10-28T09:34:22.610Z,308.78
2022-10-28T09:35:22.630Z,307.43
2022-10-28T09:36:22.601Z,310.62
2022-10-28T09:37:22.584Z,309.33
2022-10-28T09:38:22.564Z,308.73
2022-10-28T09:39:25.404Z,309.14
2022-10-28T09:40:23.650Z,307.59
2022-10-28T09:41:22.541Z,308.64
2022-10-28T09:42:22.525Z,310.38
2022-10-28T09:43:22.510Z,308.65
2022-10-28T09:44:22.559Z,309.17
2022-10-28T09:45:22.499Z,309.53
2022-10-28T09:46:22.475Z,309.15
2022-10-28T09:47:22.465Z,308.29
2022-10-28T09:48:22.457Z,307.23
2022-10-28T09:49:22.448Z,308.49
2022-10-28T09:50:22.447Z,305.55
2022-10-28T09:51:22.428Z,309.65
2022-10-28T09:52:22.429Z,307.61
2022-10-28T09:53:22.427Z,309.19
2022-10-28T09:54:22.398Z,308.76
2022-10-28T09:55:22.443Z,309.70
2022-10-28T09:56:22.377Z,309.33
2022-10-28T09:57:22.409Z,306.48
2022-10-28T09:58:22.397Z,309.73
2022-10-28T09:59:22.336Z,307.30
2022-10-28T10:00:22.515Z,307.31
2022-10-28T10:01:22.424Z,306.01
2022-10-28T10:02:23.454Z,307.79
2022-10-28T10:03:22.297Z,308.81
2022-10-28T10:04:22.279Z,307.61
2022-10-28T10:05:22.298Z,307.66
2022-10-28T10:06:22.262Z,307.63
2022-10-28T10:07:22.247Z,308.80
2022-10-28T10:08:22.239Z,308.23
2022-10-28T10:09:22.299Z,308.11
2022-10-28T10:10:22.220Z,307.80
2022-10-28T10:11:22.244Z,309.25
2022-10-28T10:12:22.193Z,309.78
2022-10-28T10:13:22.180Z,309.53
2022-10-28T10:14:22.182Z,308.11
2022-10-28T10:15:22.168Z,308.13
2022-10-28T10:16:22.149Z,307.73
2022-10-28T10:17:22.194Z,309.31
2022-10-28T10:18:22.127Z,309.16
2022-10-28T10:19:22.122Z,307.66
2022-10-28T10:20:22.105Z,307.09
2022-10-28T10:21:22.107Z,309.41
2022-10-28T10:22:22.082Z,309.63
2022-10-28T10:23:22.088Z,308.19
2022-10-28T10:24:22.062Z,306.73
2022-10-28T10:25:22.061Z,310.04
2022-10-28T10:26:22.039Z,309.70
2022-10-28T10:27:22.030Z,309.84
2022-10-28T10:28:22.089Z,309.66
2022-10-28T10:29:22.024Z,306.54
2022-10-28T10:30:21.993Z,309.21
2022-10-28T10:31:21.993Z,310.26
2022-10-28T10:32:22.010Z,307.64
2022-10-28T10:33:21.968Z,309.87
2022-10-28T10:34:21.963Z,308.68
2022-10-28T10:35:21.954Z,307.97
2022-10-28T10:36:21.944Z,308.91
2022-10-28T10:37:21.920Z,309.43
2022-10-28T10:38:21.916Z,309.55
2022-10-28T10:39:21.925Z,307.43
2022-10-28T10:40:21.890Z,308.27
2022-10-28T10:41:21.888Z,309.99
2022-10-28T10:42:21.881Z,309.06
2022-10-28T10:43:21.858Z,309.54
2022-10-28T10:44:21.968Z,310.03
2022-10-28T10:45:21.836Z,308.70
2022-10-28T10:46:21.837Z,310.02
2022-10-28T10:47:21.838Z,309.97
2022-10-28T10:48:21.815Z,310.84
2022-10-28T10:49:21.822Z,305.18
2022-10-28T10:50:21.921Z,309.23
2022-10-28T10:51:21.789Z,307.94
2022-10-28T10:52:21.758Z,308.22
2022-10-28T10:53:21.746Z,308.43
2022-10-28T10:54:21.744Z,308.58
2022-10-28T10:55:21.728Z,308.44
2022-10-28T10:56:21.719Z,309.35
2022-10-28T10:57:21.711Z,307.18
2022-10-28T10:58:21.691Z,310.43
2022-10-28T10:59:21.684Z,310.97
2022-10-28T11:00:22.397Z,311.10
2022-10-28T11:01:21.900Z,309.97
2022-10-28T11:02:21.767Z,309.63
2022-10-28T11:03:21.647Z,309.00
2022-10-28T11:04:21.647Z,309.70
2022-10-28T11:05:24.389Z,309.40
2022-10-28T11:06:24.235Z,308.86
2022-10-28T11:07:21.618Z,311.20
2022-10-28T11:08:21.579Z,309.02
2022-10-28T11:09:21.912Z,308.09
2022-10-28T11:10:21.563Z,310.11
2022-10-28T11:11:21.561Z,308.01
2022-10-28T11:12:21.563Z,309.64
2022-10-28T11:13:21.546Z,307.94
2022-10-28T11:14:21.517Z,309.19
2022-10-28T11:15:21.531Z,310.45
2022-10-28T11:16:21.504Z,310.73
2022-10-28T11:17:21.606Z,307.44
2022-10-28T11:18:21.477Z,309.59
2022-10-28T11:19:21.529Z,309.80
2022-10-28T11:20:21.459Z,307.90
2022-10-28T11:21:21.479Z,309.03
2022-10-28T11:22:21.429Z,310.67
2022-10-28T11:23:21.420Z,309.07
2022-10-28T11:24:21.461Z,310.14
2022-10-28T11:25:21.422Z,305.52
2022-10-28T11:26:21.405Z,308.55
2022-10-28T11:27:21.399Z,307.33
2022-10-28T11:28:21.374Z,307.59
2022-10-28T11:29:21.360Z,309.01
2022-10-28T11:30:21.376Z,309.80
2022-10-28T11:31:21.369Z,308.76
2022-10-28T11:32:21.326Z,309.43
2022-10-28T11:33:30.080Z,308.19
2022-10-28T11:34:22.306Z,308.50
2022-10-28T11:35:21.531Z,308.72
2022-10-28T11:36:21.296Z,309.38
2022-10-28T11:37:21.296Z,308.34
2022-10-28T11:38:21.272Z,309.49
2022-10-28T11:39:21.250Z,309.54
2022-10-28T11:40:21.250Z,310.06
2022-10-28T11:41:21.237Z,309.22
2022-10-28T11:42:21.235Z,307.82
2022-10-28T11:43:21.204Z,309.89
2022-10-28T11:44:21.195Z,307.17
2022-10-28T11:45:21.198Z,309.65
2022-10-28T11:46:21.168Z,309.40
2022-10-28T11:47:21.173Z,304.75
2022-10-28T11:48:21.175Z,309.76
2022-10-28T11:49:21.135Z,305.80
2022-10-28T11:50:21.129Z,306.58
2022-10-28T11:51:21.142Z,308.38
2022-10-28T11:52:21.114Z,308.48
2022-10-28T11:53:21.127Z,309.87
2022-10-28T11:54:21.096Z,307.51
2022-10-28T11:55:21.076Z,308.96
2022-10-28T11:56:21.064Z,307.78
2022-10-28T11:57:21.120Z,306.90
2022-10-28T11:58:21.051Z,306.30
2022-10-28T11:59:21.046Z,308.96
2022-10-28T12:00:21.034Z,309.86
2022-10-28T12:01:21.105Z,308.34
2022-10-28T12:02:21.132Z,307.65
2022-10-28T12:03:21.031Z,310.11
2022-10-28T12:04:20.993Z,309.32
2022-10-28T12:05:20.964Z,307.43
2022-10-28T12:06:20.965Z,308.94
2022-10-28T12:07:20.951Z,307.16
2022-10-28T12:08:20.936Z,308.46
2022-10-28T12:09:20.927Z,306.48
2022-10-28T12:10:20.928Z,308.50
2022-10-28T12:11:20.899Z,308.25
2022-10-28T12:12:20.887Z,307.60
2022-10-28T12:13:20.876Z,308.16
2022-10-28T12:14:20.890Z,308.81
2022-10-28T12:15:20.890Z,310.71
2022-10-28T12:16:20.912Z,309.44
2022-10-28T12:17:20.840Z,307.90
2022-10-28T12:18:20.828Z,309.88
2022-10-28T12:19:20.806Z,310.19
2022-10-28T12:20:20.810Z,310.17
2022-10-28T12:21:20.889Z,309.72
2022-10-28T12:22:20.782Z,310.44
2022-10-28T12:23:20.777Z,310.85
2022-10-28T12:24:20.750Z,309.68
2022-10-28T12:25:20.777Z,308.96
2022-10-28T12:26:20.746Z,310.85
2022-10-28T12:27:20.727Z,311.40
2022-10-28T12:28:20.714Z,310.80
2022-10-28T12:29:20.693Z,309.99
2022-10-28T12:30:20.716Z,310.41